sensor_id;sensor_type;location;lat;lon;timestamp;P1;durP1;ratioP1;P2;durP2;ratioP2
75937;SDS011;64615;32.062;34.834;2023-06-26T00:00:18;4.63;;;2.40;;
75937;SDS011;64615;32.062;34.834;2023-06-26T00:02:44;4.50;;;2.25;;
75937;SDS011;64615;32.062;34.834;2023-06-26T00:05:10;4.80;;;2.42;;
75937;SDS011;64615;32.062;34.834;2023-06-26T00:07:35;5.63;;;2.40;;
75937;SDS011;64615;32.062;34.834;2023-06-26T00:10:02;4.40;;;2.20;;
75937;SDS011;64615;32.062;34.834;2023-06-26T00:12:29;4.53;;;2.50;;
75937;SDS011;64615;32.062;34.834;2023-06-26T00:14:55;4.60;;;2.10;;
75937;SDS011;64615;32.062;34.834;2023-06-26T00:17:21;4.13;;;2.10;;
75937;SDS011;64615;32.062;34.834;2023-06-26T00:19:47;4.55;;;2.42;;
75937;SDS011;64615;32.062;34.834;2023-06-26T00:22:13;4.28;;;2.22;;
75937;SDS011;64615;32.062;34.834;2023-06-26T00:24:39;5.75;;;2.38;;
75937;SDS011;64615;32.062;34.834;2023-06-26T00:27:04;5.05;;;2.53;;
75937;SDS011;64615;32.062;34.834;2023-06-26T00:29:30;5.75;;;2.65;;
75937;SDS011;64615;32.062;34.834;2023-06-26T00:31:56;4.50;;;2.38;;
75937;SDS011;64615;32.062;34.834;2023-06-26T00:34:22;6.28;;;2.65;;
75937;SDS011;64615;32.062;34.834;2023-06-26T00:36:47;5.32;;;2.53;;
75937;SDS011;64615;32.062;34.834;2023-06-26T00:39:13;5.20;;;2.60;;
75937;SDS011;64615;32.062;34.834;2023-06-26T00:41:39;4.28;;;2.53;;
75937;SDS011;64615;32.062;34.834;2023-06-26T00:44:05;4.35;;;2.42;;
75937;SDS011;64615;32.062;34.834;2023-06-26T00:46:31;5.05;;;2.60;;
75937;SDS011;64615;32.062;34.834;2023-06-26T00:48:58;7.05;;;2.72;;
75937;SDS011;64615;32.062;34.834;2023-06-26T00:51:25;5.90;;;2.60;;
75937;SDS011;64615;32.062;34.834;2023-06-26T00:53:53;5.47;;;2.53;;
75937;SDS011;64615;32.062;34.834;2023-06-26T00:56:19;4.80;;;2.70;;
75937;SDS011;64615;32.062;34.834;2023-06-26T00:58:45;6.55;;;3.10;;
75937;SDS011;64615;32.062;34.834;2023-06-26T01:01:11;6.75;;;2.60;;
75937;SDS011;64615;32.062;34.834;2023-06-26T01:03:45;6.28;;;2.85;;
75937;SDS011;64615;32.062;34.834;2023-06-26T01:08:42;5.88;;;2.80;;
75937;SDS011;64615;32.062;34.834;2023-06-26T01:11:09;6.93;;;2.90;;
75937;SDS011;64615;32.062;34.834;2023-06-26T01:13:35;6.72;;;3.00;;
75937;SDS011;64615;32.062;34.834;2023-06-26T01:16:02;5.97;;;2.78;;
75937;SDS011;64615;32.062;34.834;2023-06-26T01:18:29;7.20;;;2.85;;
75937;SDS011;64615;32.062;34.834;2023-06-26T01:20:56;7.35;;;3.20;;
75937;SDS011;64615;32.062;34.834;2023-06-26T01:23:35;7.03;;;3.10;;
75937;SDS011;64615;32.062;34.834;2023-06-26T01:28:45;7.18;;;3.13;;
75937;SDS011;64615;32.062;34.834;2023-06-26T01:31:11;5.72;;;2.53;;
75937;SDS011;64615;32.062;34.834;2023-06-26T01:33:38;6.15;;;3.15;;
75937;SDS011;64615;32.062;34.834;2023-06-26T01:36:05;5.65;;;3.00;;
75937;SDS011;64615;32.062;34.834;2023-06-26T01:38:31;6.00;;;3.35;;
75937;SDS011;64615;32.062;34.834;2023-06-26T01:40:58;7.65;;;3.25;;
75937;SDS011;64615;32.062;34.834;2023-06-26T01:46:06;8.70;;;3.38;;
75937;SDS011;64615;32.062;34.834;2023-06-26T01:48:49;6.35;;;3.53;;
75937;SDS011;64615;32.062;34.834;2023-06-26T01:51:26;7.38;;;3.28;;
75937;SDS011;64615;32.062;34.834;2023-06-26T01:53:58;7.05;;;3.05;;
75937;SDS011;64615;32.062;34.834;2023-06-26T01:56:25;6.88;;;3.20;;
75937;SDS011;64615;32.062;34.834;2023-06-26T01:58:53;7.20;;;3.10;;
75937;SDS011;64615;32.062;34.834;2023-06-26T02:01:20;8.00;;;2.72;;
75937;SDS011;64615;32.062;34.834;2023-06-26T02:03:46;6.60;;;3.13;;
75937;SDS011;64615;32.062;34.834;2023-06-26T02:06:12;6.28;;;2.97;;
75937;SDS011;64615;32.062;34.834;2023-06-26T02:08:38;5.95;;;3.22;;
75937;SDS011;64615;32.062;34.834;2023-06-26T02:11:03;11.35;;;3.60;;
75937;SDS011;64615;32.062;34.834;2023-06-26T02:13:29;11.32;;;2.97;;
75937;SDS011;64615;32.062;34.834;2023-06-26T02:15:55;8.55;;;3.15;;
75937;SDS011;64615;32.062;34.834;2023-06-26T02:18:20;6.47;;;3.55;;
75937;SDS011;64615;32.062;34.834;2023-06-26T02:20:47;6.80;;;3.45;;
75937;SDS011;64615;32.062;34.834;2023-06-26T02:23:13;7.60;;;3.17;;
75937;SDS011;64615;32.062;34.834;2023-06-26T02:25:39;6.07;;;3.30;;
75937;SDS011;64615;32.062;34.834;2023-06-26T02:28:05;5.10;;;2.97;;
75937;SDS011;64615;32.062;34.834;2023-06-26T02:30:31;5.60;;;3.00;;
75937;SDS011;64615;32.062;34.834;2023-06-26T02:32:56;5.25;;;2.67;;
75937;SDS011;64615;32.062;34.834;2023-06-26T02:35:22;5.72;;;3.08;;
75937;SDS011;64615;32.062;34.834;2023-06-26T02:37:47;7.28;;;3.40;;
75937;SDS011;64615;32.062;34.834;2023-06-26T02:40:13;6.38;;;3.28;;
75937;SDS011;64615;32.062;34.834;2023-06-26T02:42:39;5.38;;;3.25;;
75937;SDS011;64615;32.062;34.834;2023-06-26T02:45:05;4.95;;;2.85;;
75937;SDS011;64615;32.062;34.834;2023-06-26T02:47:31;6.32;;;3.00;;
75937;SDS011;64615;32.062;34.834;2023-06-26T02:49:56;5.20;;;2.83;;
75937;SDS011;64615;32.062;34.834;2023-06-26T02:52:22;6.10;;;3.08;;
75937;SDS011;64615;32.062;34.834;2023-06-26T02:54:47;5.32;;;3.05;;
75937;SDS011;64615;32.062;34.834;2023-06-26T02:57:13;6.03;;;3.10;;
75937;SDS011;64615;32.062;34.834;2023-06-26T02:59:39;5.38;;;2.88;;
75937;SDS011;64615;32.062;34.834;2023-06-26T03:02:05;7.15;;;2.70;;
75937;SDS011;64615;32.062;34.834;2023-06-26T03:04:31;5.72;;;3.08;;
75937;SDS011;64615;32.062;34.834;2023-06-26T03:06:57;4.70;;;2.53;;
75937;SDS011;64615;32.062;34.834;2023-06-26T03:09:22;5.30;;;2.90;;
75937;SDS011;64615;32.062;34.834;2023-06-26T03:11:48;6.72;;;3.10;;
75937;SDS011;64615;32.062;34.834;2023-06-26T03:14:14;6.50;;;3.30;;
75937;SDS011;64615;32.062;34.834;2023-06-26T03:16:40;7.47;;;3.10;;
75937;SDS011;64615;32.062;34.834;2023-06-26T03:19:06;6.18;;;2.90;;
75937;SDS011;64615;32.062;34.834;2023-06-26T03:21:32;8.63;;;2.92;;
75937;SDS011;64615;32.062;34.834;2023-06-26T03:23:58;11.30;;;3.15;;
75937;SDS011;64615;32.062;34.834;2023-06-26T03:26:24;8.50;;;3.85;;
75937;SDS011;64615;32.062;34.834;2023-06-26T03:28:52;14.52;;;4.45;;
75937;SDS011;64615;32.062;34.834;2023-06-26T03:31:19;14.85;;;5.60;;
75937;SDS011;64615;32.062;34.834;2023-06-26T03:33:45;11.00;;;5.10;;
75937;SDS011;64615;32.062;34.834;2023-06-26T03:36:11;14.18;;;5.47;;
75937;SDS011;64615;32.062;34.834;2023-06-26T03:38:36;14.88;;;6.38;;
75937;SDS011;64615;32.062;34.834;2023-06-26T03:41:02;18.90;;;8.68;;
75937;SDS011;64615;32.062;34.834;2023-06-26T03:43:28;21.23;;;8.05;;
75937;SDS011;64615;32.062;34.834;2023-06-26T03:45:54;17.63;;;8.38;;
75937;SDS011;64615;32.062;34.834;2023-06-26T03:48:19;14.82;;;7.13;;
75937;SDS011;64615;32.062;34.834;2023-06-26T03:50:45;15.70;;;7.45;;
75937;SDS011;64615;32.062;34.834;2023-06-26T03:53:11;23.30;;;8.05;;
75937;SDS011;64615;32.062;34.834;2023-06-26T03:55:37;27.13;;;8.32;;
75937;SDS011;64615;32.062;34.834;2023-06-26T03:58:03;26.23;;;8.48;;
75937;SDS011;64615;32.062;34.834;2023-06-26T04:00:29;27.52;;;9.15;;
75937;SDS011;64615;32.062;34.834;2023-06-26T04:02:55;26.20;;;9.13;;
75937;SDS011;64615;32.062;34.834;2023-06-26T04:05:21;25.02;;;9.30;;
75937;SDS011;64615;32.062;34.834;2023-06-26T04:07:49;20.15;;;8.40;;
75937;SDS011;64615;32.062;34.834;2023-06-26T04:10:15;24.42;;;8.93;;
75937;SDS011;64615;32.062;34.834;2023-06-26T04:12:41;41.15;;;10.23;;
75937;SDS011;64615;32.062;34.834;2023-06-26T04:15:07;24.38;;;9.70;;
75937;SDS011;64615;32.062;34.834;2023-06-26T04:17:33;20.35;;;8.75;;
75937;SDS011;64615;32.062;34.834;2023-06-26T04:19:58;18.95;;;7.85;;
75937;SDS011;64615;32.062;34.834;2023-06-26T04:22:24;17.05;;;7.82;;
75937;SDS011;64615;32.062;34.834;2023-06-26T04:24:50;19.35;;;8.35;;
75937;SDS011;64615;32.062;34.834;2023-06-26T04:27:16;20.35;;;8.48;;
75937;SDS011;64615;32.062;34.834;2023-06-26T04:29:43;18.73;;;8.60;;
75937;SDS011;64615;32.062;34.834;2023-06-26T04:32:08;17.60;;;8.15;;
75937;SDS011;64615;32.062;34.834;2023-06-26T04:34:34;15.43;;;8.05;;
75937;SDS011;64615;32.062;34.834;2023-06-26T04:37:01;18.13;;;8.23;;
75937;SDS011;64615;32.062;34.834;2023-06-26T04:39:29;16.33;;;7.90;;
75937;SDS011;64615;32.062;34.834;2023-06-26T04:41:55;17.50;;;8.98;;
75937;SDS011;64615;32.062;34.834;2023-06-26T04:44:21;17.90;;;7.95;;
75937;SDS011;64615;32.062;34.834;2023-06-26T04:46:47;19.38;;;8.70;;
75937;SDS011;64615;32.062;34.834;2023-06-26T04:49:12;26.58;;;9.32;;
75937;SDS011;64615;32.062;34.834;2023-06-26T04:51:38;20.10;;;8.88;;
75937;SDS011;64615;32.062;34.834;2023-06-26T04:54:08;19.90;;;8.88;;
75937;SDS011;64615;32.062;34.834;2023-06-26T04:56:35;23.45;;;8.65;;
75937;SDS011;64615;32.062;34.834;2023-06-26T04:59:01;15.25;;;7.78;;
75937;SDS011;64615;32.062;34.834;2023-06-26T05:01:28;15.73;;;7.15;;
75937;SDS011;64615;32.062;34.834;2023-06-26T05:03:55;14.18;;;7.25;;
75937;SDS011;64615;32.062;34.834;2023-06-26T05:06:22;15.48;;;7.20;;
75937;SDS011;64615;32.062;34.834;2023-06-26T05:08:48;16.10;;;6.97;;
75937;SDS011;64615;32.062;34.834;2023-06-26T05:11:13;15.98;;;7.13;;
75937;SDS011;64615;32.062;34.834;2023-06-26T05:13:39;14.75;;;6.47;;
75937;SDS011;64615;32.062;34.834;2023-06-26T05:16:05;18.35;;;6.75;;
75937;SDS011;64615;32.062;34.834;2023-06-26T05:18:33;16.60;;;6.03;;
75937;SDS011;64615;32.062;34.834;2023-06-26T05:20:58;16.52;;;6.10;;
75937;SDS011;64615;32.062;34.834;2023-06-26T05:23:25;15.57;;;6.22;;
75937;SDS011;64615;32.062;34.834;2023-06-26T05:25:51;12.90;;;5.78;;
75937;SDS011;64615;32.062;34.834;2023-06-26T05:28:17;13.68;;;6.57;;
75937;SDS011;64615;32.062;34.834;2023-06-26T05:30:43;16.75;;;5.85;;
75937;SDS011;64615;32.062;34.834;2023-06-26T05:33:10;13.30;;;5.88;;
75937;SDS011;64615;32.062;34.834;2023-06-26T05:35:37;17.63;;;6.72;;
75937;SDS011;64615;32.062;34.834;2023-06-26T05:38:04;20.55;;;6.97;;
75937;SDS011;64615;32.062;34.834;2023-06-26T05:40:30;15.27;;;6.22;;
75937;SDS011;64615;32.062;34.834;2023-06-26T05:42:56;21.77;;;7.05;;
75937;SDS011;64615;32.062;34.834;2023-06-26T05:45:22;18.42;;;6.78;;
75937;SDS011;64615;32.062;34.834;2023-06-26T05:47:47;17.75;;;6.93;;
75937;SDS011;64615;32.062;34.834;2023-06-26T05:50:15;17.85;;;6.68;;
75937;SDS011;64615;32.062;34.834;2023-06-26T05:52:42;11.30;;;6.32;;
75937;SDS011;64615;32.062;34.834;2023-06-26T05:55:09;17.45;;;6.97;;
75937;SDS011;64615;32.062;34.834;2023-06-26T05:57:35;18.42;;;6.50;;
75937;SDS011;64615;32.062;34.834;2023-06-26T06:00:02;13.85;;;6.25;;
75937;SDS011;64615;32.062;34.834;2023-06-26T06:02:30;15.38;;;7.20;;
75937;SDS011;64615;32.062;34.834;2023-06-26T06:04:56;18.75;;;7.22;;
75937;SDS011;64615;32.062;34.834;2023-06-26T06:07:22;14.00;;;6.93;;
75937;SDS011;64615;32.062;34.834;2023-06-26T06:09:47;16.30;;;7.68;;
75937;SDS011;64615;32.062;34.834;2023-06-26T06:12:13;17.25;;;7.35;;
75937;SDS011;64615;32.062;34.834;2023-06-26T06:14:38;15.30;;;6.80;;
75937;SDS011;64615;32.062;34.834;2023-06-26T06:17:04;14.93;;;6.93;;
75937;SDS011;64615;32.062;34.834;2023-06-26T06:19:30;14.07;;;6.50;;
75937;SDS011;64615;32.062;34.834;2023-06-26T06:21:55;16.38;;;7.40;;
75937;SDS011;64615;32.062;34.834;2023-06-26T06:24:21;16.90;;;7.10;;
75937;SDS011;64615;32.062;34.834;2023-06-26T06:26:46;19.40;;;7.95;;
75937;SDS011;64615;32.062;34.834;2023-06-26T06:29:12;15.75;;;6.68;;
75937;SDS011;64615;32.062;34.834;2023-06-26T06:31:38;10.15;;;6.40;;
75937;SDS011;64615;32.062;34.834;2023-06-26T06:34:03;11.55;;;6.18;;
75937;SDS011;64615;32.062;34.834;2023-06-26T06:36:29;11.15;;;6.63;;
75937;SDS011;64615;32.062;34.834;2023-06-26T06:38:55;12.35;;;6.45;;
75937;SDS011;64615;32.062;34.834;2023-06-26T06:41:20;12.40;;;6.22;;
75937;SDS011;64615;32.062;34.834;2023-06-26T06:43:46;11.70;;;6.13;;
75937;SDS011;64615;32.062;34.834;2023-06-26T06:46:12;13.48;;;6.57;;
75937;SDS011;64615;32.062;34.834;2023-06-26T06:48:38;25.98;;;7.00;;
75937;SDS011;64615;32.062;34.834;2023-06-26T06:51:03;16.30;;;6.00;;
75937;SDS011;64615;32.062;34.834;2023-06-26T06:53:29;13.93;;;6.15;;
75937;SDS011;64615;32.062;34.834;2023-06-26T06:55:56;16.27;;;6.15;;
75937;SDS011;64615;32.062;34.834;2023-06-26T06:58:22;11.55;;;6.03;;
75937;SDS011;64615;32.062;34.834;2023-06-26T07:00:48;11.57;;;5.60;;
75937;SDS011;64615;32.062;34.834;2023-06-26T07:03:14;12.82;;;6.13;;
75937;SDS011;64615;32.062;34.834;2023-06-26T07:05:43;10.95;;;5.72;;
75937;SDS011;64615;32.062;34.834;2023-06-26T07:08:09;11.77;;;5.78;;
75937;SDS011;64615;32.062;34.834;2023-06-26T07:10:35;10.98;;;5.70;;
75937;SDS011;64615;32.062;34.834;2023-06-26T07:13:01;10.30;;;5.47;;
75937;SDS011;64615;32.062;34.834;2023-06-26T07:15:27;10.80;;;5.60;;
75937;SDS011;64615;32.062;34.834;2023-06-26T07:17:52;10.07;;;5.63;;
75937;SDS011;64615;32.062;34.834;2023-06-26T07:20:18;11.45;;;5.28;;
75937;SDS011;64615;32.062;34.834;2023-06-26T07:22:44;14.32;;;5.85;;
75937;SDS011;64615;32.062;34.834;2023-06-26T07:25:10;13.73;;;5.80;;
75937;SDS011;64615;32.062;34.834;2023-06-26T07:27:39;11.10;;;5.78;;
75937;SDS011;64615;32.062;34.834;2023-06-26T07:30:06;14.75;;;5.85;;
75937;SDS011;64615;32.062;34.834;2023-06-26T07:32:35;12.75;;;5.65;;
75937;SDS011;64615;32.062;34.834;2023-06-26T07:35:02;11.52;;;5.57;;
75937;SDS011;64615;32.062;34.834;2023-06-26T07:37:28;10.88;;;5.55;;
75937;SDS011;64615;32.062;34.834;2023-06-26T07:39:53;12.20;;;5.25;;
75937;SDS011;64615;32.062;34.834;2023-06-26T07:42:19;13.00;;;5.20;;
75937;SDS011;64615;32.062;34.834;2023-06-26T07:44:44;10.68;;;5.18;;
75937;SDS011;64615;32.062;34.834;2023-06-26T07:47:11;13.32;;;5.30;;
75937;SDS011;64615;32.062;34.834;2023-06-26T07:49:36;11.20;;;5.10;;
75937;SDS011;64615;32.062;34.834;2023-06-26T07:52:04;12.02;;;4.70;;
75937;SDS011;64615;32.062;34.834;2023-06-26T07:54:30;12.80;;;5.47;;
75937;SDS011;64615;32.062;34.834;2023-06-26T07:57:03;9.00;;;5.20;;
75937;SDS011;64615;32.062;34.834;2023-06-26T07:59:32;11.05;;;5.63;;
75937;SDS011;64615;32.062;34.834;2023-06-26T08:01:58;11.63;;;5.15;;
75937;SDS011;64615;32.062;34.834;2023-06-26T08:04:25;13.88;;;5.28;;
75937;SDS011;64615;32.062;34.834;2023-06-26T08:06:52;11.38;;;5.47;;
75937;SDS011;64615;32.062;34.834;2023-06-26T08:09:20;11.55;;;5.15;;
75937;SDS011;64615;32.062;34.834;2023-06-26T08:11:47;12.07;;;5.60;;
75937;SDS011;64615;32.062;34.834;2023-06-26T08:14:12;14.60;;;4.93;;
75937;SDS011;64615;32.062;34.834;2023-06-26T08:16:38;12.25;;;4.93;;
75937;SDS011;64615;32.062;34.834;2023-06-26T08:19:04;11.55;;;5.15;;
75937;SDS011;64615;32.062;34.834;2023-06-26T08:21:30;14.65;;;4.80;;
75937;SDS011;64615;32.062;34.834;2023-06-26T08:23:56;11.38;;;5.07;;
75937;SDS011;64615;32.062;34.834;2023-06-26T08:26:21;11.40;;;5.28;;
75937;SDS011;64615;32.062;34.834;2023-06-26T08:28:47;10.40;;;4.68;;
75937;SDS011;64615;32.062;34.834;2023-06-26T08:31:13;11.40;;;4.93;;
75937;SDS011;64615;32.062;34.834;2023-06-26T08:33:38;11.55;;;4.63;;
75937;SDS011;64615;32.062;34.834;2023-06-26T08:36:04;8.40;;;4.53;;
75937;SDS011;64615;32.062;34.834;2023-06-26T08:38:30;9.55;;;4.32;;
75937;SDS011;64615;32.062;34.834;2023-06-26T08:40:55;14.70;;;4.72;;
75937;SDS011;64615;32.062;34.834;2023-06-26T08:43:21;9.48;;;4.85;;
75937;SDS011;64615;32.062;34.834;2023-06-26T08:45:47;9.20;;;4.68;;
75937;SDS011;64615;32.062;34.834;2023-06-26T08:48:17;12.27;;;4.90;;
75937;SDS011;64615;32.062;34.834;2023-06-26T08:50:43;10.77;;;4.80;;
75937;SDS011;64615;32.062;34.834;2023-06-26T08:54:10;12.15;;;5.00;;
75937;SDS011;64615;32.062;34.834;2023-06-26T08:56:07;11.35;;;5.25;;
75937;SDS011;64615;32.062;34.834;2023-06-26T08:58:34;12.10;;;4.50;;
75937;SDS011;64615;32.062;34.834;2023-06-26T09:01:03;12.77;;;5.50;;
75937;SDS011;64615;32.062;34.834;2023-06-26T09:03:30;9.77;;;4.18;;
75937;SDS011;64615;32.062;34.834;2023-06-26T09:05:58;13.70;;;5.10;;
75937;SDS011;64615;32.062;34.834;2023-06-26T09:08:23;11.95;;;4.88;;
75937;SDS011;64615;32.062;34.834;2023-06-26T09:10:49;10.80;;;4.80;;
75937;SDS011;64615;32.062;34.834;2023-06-26T09:13:15;16.25;;;5.18;;
75937;SDS011;64615;32.062;34.834;2023-06-26T09:15:44;10.13;;;5.28;;
75937;SDS011;64615;32.062;34.834;2023-06-26T09:18:10;16.42;;;5.85;;
75937;SDS011;64615;32.062;34.834;2023-06-26T09:20:41;11.13;;;5.10;;
75937;SDS011;64615;32.062;34.834;2023-06-26T09:23:07;17.60;;;4.95;;
75937;SDS011;64615;32.062;34.834;2023-06-26T09:25:34;10.77;;;5.40;;
75937;SDS011;64615;32.062;34.834;2023-06-26T09:28:04;11.77;;;5.40;;
75937;SDS011;64615;32.062;34.834;2023-06-26T09:30:33;9.52;;;4.60;;
75937;SDS011;64615;32.062;34.834;2023-06-26T09:33:13;7.45;;;3.83;;
75937;SDS011;64615;32.062;34.834;2023-06-26T09:35:43;8.40;;;4.43;;
75937;SDS011;64615;32.062;34.834;2023-06-26T09:38:10;7.22;;;4.43;;
75937;SDS011;64615;32.062;34.834;2023-06-26T09:40:36;6.35;;;4.22;;
75937;SDS011;64615;32.062;34.834;2023-06-26T09:43:07;11.48;;;4.47;;
75937;SDS011;64615;32.062;34.834;2023-06-26T09:45:39;7.85;;;3.90;;
75937;SDS011;64615;32.062;34.834;2023-06-26T09:48:05;6.97;;;4.13;;
75937;SDS011;64615;32.062;34.834;2023-06-26T09:50:33;5.95;;;3.47;;
75937;SDS011;64615;32.062;34.834;2023-06-26T09:53:09;5.95;;;3.50;;
75937;SDS011;64615;32.062;34.834;2023-06-26T09:55:36;8.55;;;3.58;;
75937;SDS011;64615;32.062;34.834;2023-06-26T09:58:03;6.38;;;3.67;;
75937;SDS011;64615;32.062;34.834;2023-06-26T10:00:32;5.93;;;3.45;;
75937;SDS011;64615;32.062;34.834;2023-06-26T10:02:59;6.40;;;3.58;;
75937;SDS011;64615;32.062;34.834;2023-06-26T10:05:25;6.57;;;3.60;;
75937;SDS011;64615;32.062;34.834;2023-06-26T10:07:52;5.75;;;3.50;;
75937;SDS011;64615;32.062;34.834;2023-06-26T10:10:19;6.60;;;3.38;;
75937;SDS011;64615;32.062;34.834;2023-06-26T10:12:46;5.78;;;3.28;;
75937;SDS011;64615;32.062;34.834;2023-06-26T10:15:14;6.03;;;3.30;;
75937;SDS011;64615;32.062;34.834;2023-06-26T10:17:42;6.70;;;3.33;;
75937;SDS011;64615;32.062;34.834;2023-06-26T10:20:11;5.82;;;3.03;;
75937;SDS011;64615;32.062;34.834;2023-06-26T10:22:41;5.45;;;2.85;;
75937;SDS011;64615;32.062;34.834;2023-06-26T10:25:10;5.35;;;3.05;;
75937;SDS011;64615;32.062;34.834;2023-06-26T10:27:41;4.82;;;2.83;;
75937;SDS011;64615;32.062;34.834;2023-06-26T10:30:11;6.72;;;3.10;;
75937;SDS011;64615;32.062;34.834;2023-06-26T10:32:42;4.72;;;3.00;;
75937;SDS011;64615;32.062;34.834;2023-06-26T10:35:10;5.45;;;3.38;;
75937;SDS011;64615;32.062;34.834;2023-06-26T10:40:09;7.22;;;3.40;;
75937;SDS011;64615;32.062;34.834;2023-06-26T10:42:36;4.57;;;2.60;;
75937;SDS011;64615;32.062;34.834;2023-06-26T10:45:20;4.30;;;2.53;;
75937;SDS011;64615;32.062;34.834;2023-06-26T10:47:47;5.07;;;2.80;;
75937;SDS011;64615;32.062;34.834;2023-06-26T10:55:48;4.50;;;2.42;;
75937;SDS011;64615;32.062;34.834;2023-06-26T11:03:49;5.43;;;2.58;;
75937;SDS011;64615;32.062;34.834;2023-06-26T11:06:26;5.55;;;2.72;;
75937;SDS011;64615;32.062;34.834;2023-06-26T11:09:11;5.53;;;2.55;;
75937;SDS011;64615;32.062;34.834;2023-06-26T11:14:21;3.70;;;2.30;;
75937;SDS011;64615;32.062;34.834;2023-06-26T11:16:47;4.03;;;2.35;;
75937;SDS011;64615;32.062;34.834;2023-06-26T11:19:16;3.95;;;2.30;;
75937;SDS011;64615;32.062;34.834;2023-06-26T11:21:43;4.57;;;2.22;;
75937;SDS011;64615;32.062;34.834;2023-06-26T11:24:09;3.55;;;1.95;;
75937;SDS011;64615;32.062;34.834;2023-06-26T11:26:43;3.65;;;2.10;;
75937;SDS011;64615;32.062;34.834;2023-06-26T11:29:10;4.60;;;2.60;;
75937;SDS011;64615;32.062;34.834;2023-06-26T11:31:38;4.18;;;2.22;;
75937;SDS011;64615;32.062;34.834;2023-06-26T11:34:06;3.55;;;2.00;;
75937;SDS011;64615;32.062;34.834;2023-06-26T11:36:37;4.53;;;2.30;;
75937;SDS011;64615;32.062;34.834;2023-06-26T11:39:04;3.53;;;2.08;;
75937;SDS011;64615;32.062;34.834;2023-06-26T11:41:37;3.67;;;2.13;;
75937;SDS011;64615;32.062;34.834;2023-06-26T11:44:04;3.63;;;1.92;;
75937;SDS011;64615;32.062;34.834;2023-06-26T11:46:34;3.67;;;2.15;;
75937;SDS011;64615;32.062;34.834;2023-06-26T11:49:04;4.50;;;2.40;;
75937;SDS011;64615;32.062;34.834;2023-06-26T11:51:33;3.90;;;2.33;;
75937;SDS011;64615;32.062;34.834;2023-06-26T11:54:01;3.88;;;2.10;;
75937;SDS011;64615;32.062;34.834;2023-06-26T11:56:30;3.08;;;2.00;;
75937;SDS011;64615;32.062;34.834;2023-06-26T12:01:38;4.00;;;2.10;;
75937;SDS011;64615;32.062;34.834;2023-06-26T12:04:07;4.00;;;2.20;;
75937;SDS011;64615;32.062;34.834;2023-06-26T12:09:02;3.63;;;2.10;;
75937;SDS011;64615;32.062;34.834;2023-06-26T12:11:30;3.97;;;2.20;;
75937;SDS011;64615;32.062;34.834;2023-06-26T12:13:56;4.20;;;2.10;;
75937;SDS011;64615;32.062;34.834;2023-06-26T12:16:23;4.18;;;2.33;;
75937;SDS011;64615;32.062;34.834;2023-06-26T12:18:48;4.40;;;2.28;;
75937;SDS011;64615;32.062;34.834;2023-06-26T12:24:13;3.63;;;2.25;;
75937;SDS011;64615;32.062;34.834;2023-06-26T12:26:44;4.28;;;2.20;;
75937;SDS011;64615;32.062;34.834;2023-06-26T12:29:14;3.63;;;2.10;;
75937;SDS011;64615;32.062;34.834;2023-06-26T12:31:46;5.00;;;2.10;;
75937;SDS011;64615;32.062;34.834;2023-06-26T12:34:18;4.78;;;2.28;;
75937;SDS011;64615;32.062;34.834;2023-06-26T12:36:47;3.38;;;1.90;;
75937;SDS011;64615;32.062;34.834;2023-06-26T12:39:15;4.47;;;2.30;;
75937;SDS011;64615;32.062;34.834;2023-06-26T12:44:20;4.88;;;2.30;;
75937;SDS011;64615;32.062;34.834;2023-06-26T12:46:54;4.25;;;2.28;;
75937;SDS011;64615;32.062;34.834;2023-06-26T12:49:34;5.45;;;2.50;;
75937;SDS011;64615;32.062;34.834;2023-06-26T12:52:08;4.80;;;2.13;;
75937;SDS011;64615;32.062;34.834;2023-06-26T12:54:38;5.07;;;2.22;;
75937;SDS011;64615;32.062;34.834;2023-06-26T12:57:06;4.78;;;2.40;;
75937;SDS011;64615;32.062;34.834;2023-06-26T12:59:32;9.60;;;2.30;;
75937;SDS011;64615;32.062;34.834;2023-06-26T13:01:59;7.88;;;2.60;;
75937;SDS011;64615;32.062;34.834;2023-06-26T13:04:25;9.57;;;2.85;;
75937;SDS011;64615;32.062;34.834;2023-06-26T13:06:51;7.10;;;2.75;;
75937;SDS011;64615;32.062;34.834;2023-06-26T13:09:19;9.73;;;3.10;;
75937;SDS011;64615;32.062;34.834;2023-06-26T13:11:45;8.40;;;3.25;;
75937;SDS011;64615;32.062;34.834;2023-06-26T13:14:11;12.60;;;3.35;;
75937;SDS011;64615;32.062;34.834;2023-06-26T13:16:37;14.88;;;3.63;;
75937;SDS011;64615;32.062;34.834;2023-06-26T13:19:03;9.20;;;3.80;;
75937;SDS011;64615;32.062;34.834;2023-06-26T13:21:29;12.80;;;3.53;;
75937;SDS011;64615;32.062;34.834;2023-06-26T13:23:55;10.85;;;4.00;;
75937;SDS011;64615;32.062;34.834;2023-06-26T13:26:22;11.55;;;3.90;;
75937;SDS011;64615;32.062;34.834;2023-06-26T13:28:48;10.27;;;3.95;;
75937;SDS011;64615;32.062;34.834;2023-06-26T13:31:14;11.23;;;4.32;;
75937;SDS011;64615;32.062;34.834;2023-06-26T13:33:40;7.40;;;3.63;;
75937;SDS011;64615;32.062;34.834;2023-06-26T13:36:06;12.75;;;3.90;;
75937;SDS011;64615;32.062;34.834;2023-06-26T13:38:35;11.70;;;4.00;;
75937;SDS011;64615;32.062;34.834;2023-06-26T13:41:00;11.98;;;3.78;;
75937;SDS011;64615;32.062;34.834;2023-06-26T13:43:27;9.68;;;3.83;;
75937;SDS011;64615;32.062;34.834;2023-06-26T13:45:53;9.85;;;4.45;;
75937;SDS011;64615;32.062;34.834;2023-06-26T13:48:19;7.32;;;3.88;;
75937;SDS011;64615;32.062;34.834;2023-06-26T13:50:45;7.47;;;4.03;;
75937;SDS011;64615;32.062;34.834;2023-06-26T13:53:12;9.18;;;4.35;;
75937;SDS011;64615;32.062;34.834;2023-06-26T13:55:38;9.02;;;4.07;;
75937;SDS011;64615;32.062;34.834;2023-06-26T13:58:04;9.43;;;4.50;;
75937;SDS011;64615;32.062;34.834;2023-06-26T14:00:34;12.10;;;4.30;;
75937;SDS011;64615;32.062;34.834;2023-06-26T14:03:00;9.88;;;4.20;;
75937;SDS011;64615;32.062;34.834;2023-06-26T14:05:28;11.20;;;4.55;;
75937;SDS011;64615;32.062;34.834;2023-06-26T14:07:54;6.85;;;3.65;;
75937;SDS011;64615;32.062;34.834;2023-06-26T14:10:23;7.05;;;4.00;;
75937;SDS011;64615;32.062;34.834;2023-06-26T14:12:49;8.10;;;4.03;;
75937;SDS011;64615;32.062;34.834;2023-06-26T14:15:14;8.93;;;4.05;;
75937;SDS011;64615;32.062;34.834;2023-06-26T14:17:40;8.68;;;3.70;;
75937;SDS011;64615;32.062;34.834;2023-06-26T14:20:08;11.25;;;4.25;;
75937;SDS011;64615;32.062;34.834;2023-06-26T14:22:41;7.75;;;3.80;;
75937;SDS011;64615;32.062;34.834;2023-06-26T14:25:08;9.65;;;4.25;;
75937;SDS011;64615;32.062;34.834;2023-06-26T14:27:35;9.98;;;4.60;;
75937;SDS011;64615;32.062;34.834;2023-06-26T14:30:02;9.00;;;4.00;;
75937;SDS011;64615;32.062;34.834;2023-06-26T14:32:29;8.75;;;4.35;;
75937;SDS011;64615;32.062;34.834;2023-06-26T14:34:55;7.68;;;4.07;;
75937;SDS011;64615;32.062;34.834;2023-06-26T14:37:21;7.78;;;4.20;;
75937;SDS011;64615;32.062;34.834;2023-06-26T14:39:47;7.30;;;3.92;;
75937;SDS011;64615;32.062;34.834;2023-06-26T14:42:13;6.80;;;3.58;;
75937;SDS011;64615;32.062;34.834;2023-06-26T14:44:38;8.38;;;4.18;;
75937;SDS011;64615;32.062;34.834;2023-06-26T14:47:04;6.97;;;3.88;;
75937;SDS011;64615;32.062;34.834;2023-06-26T14:49:30;6.57;;;3.70;;
75937;SDS011;64615;32.062;34.834;2023-06-26T14:51:56;11.85;;;3.97;;
75937;SDS011;64615;32.062;34.834;2023-06-26T14:54:22;10.35;;;3.72;;
75937;SDS011;64615;32.062;34.834;2023-06-26T14:56:47;13.55;;;4.07;;
75937;SDS011;64615;32.062;34.834;2023-06-26T14:59:13;23.90;;;4.68;;
75937;SDS011;64615;32.062;34.834;2023-06-26T15:01:39;13.98;;;4.43;;